sensor_id;sensor_type;location;lat;lon;timestamp;P1;durP1;ratioP1;P2;durP2;ratioP2
71172;SDS011;58875;51.996;4.504;2023-02-21T00:02:31;22.34;;;21.26;;
71172;SDS011;58875;51.996;4.504;2023-02-21T00:05:15;23.13;;;21.84;;
71172;SDS011;58875;51.996;4.504;2023-02-21T00:07:59;23.09;;;22.03;;
71172;SDS011;58875;51.996;4.504;2023-02-21T00:10:43;22.74;;;21.62;;
71172;SDS011;58875;51.996;4.504;2023-02-21T00:13:27;21.83;;;21.10;;
71172;SDS011;58875;51.996;4.504;2023-02-21T00:16:17;22.18;;;21.30;;
71172;SDS011;58875;51.996;4.504;2023-02-21T00:19:01;21.78;;;20.85;;
71172;SDS011;58875;51.996;4.504;2023-02-21T00:21:46;21.39;;;20.37;;
71172;SDS011;58875;51.996;4.504;2023-02-21T00:24:30;21.43;;;20.22;;
71172;SDS011;58875;51.996;4.504;2023-02-21T00:27:14;21.97;;;20.42;;
71172;SDS011;58875;51.996;4.504;2023-02-21T00:29:58;21.57;;;20.41;;
71172;SDS011;58875;51.996;4.504;2023-02-21T00:32:42;22.37;;;20.92;;
71172;SDS011;58875;51.996;4.504;2023-02-21T00:35:26;21.59;;;20.49;;
71172;SDS011;58875;51.996;4.504;2023-02-21T00:38:10;22.34;;;21.02;;
71172;SDS011;58875;51.996;4.504;2023-02-21T00:40:55;22.46;;;21.07;;
71172;SDS011;58875;51.996;4.504;2023-02-21T00:43:39;22.98;;;21.38;;
71172;SDS011;58875;51.996;4.504;2023-02-21T00:46:23;23.01;;;21.66;;
71172;SDS011;58875;51.996;4.504;2023-02-21T00:49:08;23.41;;;21.82;;
71172;SDS011;58875;51.996;4.504;2023-02-21T00:51:52;24.82;;;22.66;;
71172;SDS011;58875;51.996;4.504;2023-02-21T00:54:36;26.74;;;24.04;;
71172;SDS011;58875;51.996;4.504;2023-02-21T00:57:20;26.54;;;24.36;;
71172;SDS011;58875;51.996;4.504;2023-02-21T01:00:05;26.99;;;24.96;;
71172;SDS011;58875;51.996;4.504;2023-02-21T01:02:52;27.11;;;25.13;;
71172;SDS011;58875;51.996;4.504;2023-02-21T01:05:37;27.75;;;25.60;;
71172;SDS011;58875;51.996;4.504;2023-02-21T01:08:21;29.24;;;26.60;;
71172;SDS011;58875;51.996;4.504;2023-02-21T01:11:05;28.55;;;26.29;;
71172;SDS011;58875;51.996;4.504;2023-02-21T01:13:49;27.50;;;25.59;;
71172;SDS011;58875;51.996;4.504;2023-02-21T01:16:33;27.92;;;26.43;;
71172;SDS011;58875;51.996;4.504;2023-02-21T01:19:17;29.09;;;27.05;;
71172;SDS011;58875;51.996;4.504;2023-02-21T01:22:02;29.25;;;27.37;;
71172;SDS011;58875;51.996;4.504;2023-02-21T01:24:48;30.11;;;27.66;;
71172;SDS011;58875;51.996;4.504;2023-02-21T01:27:33;28.63;;;26.89;;
71172;SDS011;58875;51.996;4.504;2023-02-21T01:30:17;28.68;;;26.72;;
71172;SDS011;58875;51.996;4.504;2023-02-21T01:33:01;29.95;;;28.15;;
71172;SDS011;58875;51.996;4.504;2023-02-21T01:35:45;28.75;;;26.75;;
71172;SDS011;58875;51.996;4.504;2023-02-21T01:38:31;29.03;;;27.39;;
71172;SDS011;58875;51.996;4.504;2023-02-21T01:41:16;30.10;;;28.09;;
71172;SDS011;58875;51.996;4.504;2023-02-21T01:44:04;30.63;;;28.34;;
71172;SDS011;58875;51.996;4.504;2023-02-21T01:47:10;30.15;;;28.19;;
71172;SDS011;58875;51.996;4.504;2023-02-21T01:49:55;30.98;;;28.68;;
71172;SDS011;58875;51.996;4.504;2023-02-21T01:52:42;31.18;;;28.79;;
71172;SDS011;58875;51.996;4.504;2023-02-21T01:55:28;30.93;;;28.73;;
71172;SDS011;58875;51.996;4.504;2023-02-21T01:58:12;30.93;;;29.06;;
71172;SDS011;58875;51.996;4.504;2023-02-21T02:00:56;30.25;;;28.28;;
71172;SDS011;58875;51.996;4.504;2023-02-21T02:03:40;29.65;;;27.78;;
71172;SDS011;58875;51.996;4.504;2023-02-21T02:06:26;31.30;;;28.83;;
71172;SDS011;58875;51.996;4.504;2023-02-21T02:09:17;29.63;;;27.68;;
71172;SDS011;58875;51.996;4.504;2023-02-21T02:15:01;30.29;;;28.11;;
71172;SDS011;58875;51.996;4.504;2023-02-21T02:37:47;30.39;;;28.65;;
71172;SDS011;58875;51.996;4.504;2023-02-21T02:48:28;32.03;;;30.13;;
71172;SDS011;58875;51.996;4.504;2023-02-21T02:51:00;31.20;;;29.45;;
71172;SDS011;58875;51.996;4.504;2023-02-21T02:53:32;33.83;;;31.66;;
71172;SDS011;58875;51.996;4.504;2023-02-21T02:55:58;33.64;;;31.34;;
71172;SDS011;58875;51.996;4.504;2023-02-21T02:58:27;34.85;;;32.62;;
71172;SDS011;58875;51.996;4.504;2023-02-21T03:04:06;35.02;;;32.77;;
71172;SDS011;58875;51.996;4.504;2023-02-21T03:07:01;35.71;;;33.14;;
71172;SDS011;58875;51.996;4.504;2023-02-21T03:09:45;36.20;;;33.50;;
71172;SDS011;58875;51.996;4.504;2023-02-21T03:12:34;36.43;;;33.61;;
71172;SDS011;58875;51.996;4.504;2023-02-21T03:17:42;37.87;;;34.99;;
71172;SDS011;58875;51.996;4.504;2023-02-21T03:20:21;39.19;;;35.59;;
71172;SDS011;58875;51.996;4.504;2023-02-21T03:22:50;38.80;;;35.67;;
71172;SDS011;58875;51.996;4.504;2023-02-21T03:25:18;40.53;;;37.23;;
71172;SDS011;58875;51.996;4.504;2023-02-21T03:27:46;41.57;;;37.34;;
71172;SDS011;58875;51.996;4.504;2023-02-21T03:30:16;41.33;;;37.14;;
71172;SDS011;58875;51.996;4.504;2023-02-21T03:32:53;39.94;;;36.02;;
71172;SDS011;58875;51.996;4.504;2023-02-21T03:35:20;40.80;;;36.30;;
71172;SDS011;58875;51.996;4.504;2023-02-21T03:37:48;41.58;;;36.87;;
71172;SDS011;58875;51.996;4.504;2023-02-21T03:40:19;39.91;;;36.42;;
71172;SDS011;58875;51.996;4.504;2023-02-21T03:42:48;40.48;;;36.56;;
71172;SDS011;58875;51.996;4.504;2023-02-21T03:45:14;39.98;;;36.13;;
71172;SDS011;58875;51.996;4.504;2023-02-21T03:47:40;39.81;;;36.06;;
71172;SDS011;58875;51.996;4.504;2023-02-21T03:50:05;39.09;;;35.71;;
71172;SDS011;58875;51.996;4.504;2023-02-21T03:52:31;41.06;;;36.99;;
71172;SDS011;58875;51.996;4.504;2023-02-21T03:54:57;39.29;;;35.40;;
71172;SDS011;58875;51.996;4.504;2023-02-21T03:57:23;39.56;;;35.87;;
71172;SDS011;58875;51.996;4.504;2023-02-21T03:59:48;40.39;;;36.40;;
71172;SDS011;58875;51.996;4.504;2023-02-21T04:02:14;38.67;;;35.21;;
71172;SDS011;58875;51.996;4.504;2023-02-21T04:04:40;39.17;;;35.71;;
71172;SDS011;58875;51.996;4.504;2023-02-21T04:07:06;39.73;;;35.93;;
71172;SDS011;58875;51.996;4.504;2023-02-21T04:09:31;39.01;;;35.65;;
71172;SDS011;58875;51.996;4.504;2023-02-21T04:11:57;41.32;;;37.15;;
71172;SDS011;58875;51.996;4.504;2023-02-21T04:14:22;39.95;;;36.23;;
71172;SDS011;58875;51.996;4.504;2023-02-21T04:16:48;40.45;;;36.65;;
71172;SDS011;58875;51.996;4.504;2023-02-21T04:19:14;41.73;;;37.42;;
71172;SDS011;58875;51.996;4.504;2023-02-21T04:21:39;41.09;;;36.96;;
71172;SDS011;58875;51.996;4.504;2023-02-21T04:24:05;40.99;;;37.47;;
71172;SDS011;58875;51.996;4.504;2023-02-21T04:26:31;41.81;;;37.84;;
71172;SDS011;58875;51.996;4.504;2023-02-21T04:28:58;40.69;;;36.92;;
71172;SDS011;58875;51.996;4.504;2023-02-21T04:31:25;40.72;;;36.90;;
71172;SDS011;58875;51.996;4.504;2023-02-21T04:33:51;40.03;;;36.65;;
71172;SDS011;58875;51.996;4.504;2023-02-21T04:36:17;38.25;;;35.36;;
71172;SDS011;58875;51.996;4.504;2023-02-21T04:38:44;39.32;;;36.04;;
71172;SDS011;58875;51.996;4.504;2023-02-21T04:41:09;39.31;;;35.90;;
71172;SDS011;58875;51.996;4.504;2023-02-21T04:43:35;39.06;;;35.77;;
71172;SDS011;58875;51.996;4.504;2023-02-21T04:46:00;36.99;;;34.59;;
71172;SDS011;58875;51.996;4.504;2023-02-21T04:48:26;37.83;;;35.15;;
71172;SDS011;58875;51.996;4.504;2023-02-21T04:50:51;38.50;;;35.45;;
71172;SDS011;58875;51.996;4.504;2023-02-21T04:53:17;38.77;;;35.98;;
71172;SDS011;58875;51.996;4.504;2023-02-21T04:55:43;38.81;;;35.89;;
71172;SDS011;58875;51.996;4.504;2023-02-21T04:58:08;39.14;;;35.83;;
71172;SDS011;58875;51.996;4.504;2023-02-21T05:00:34;38.96;;;35.74;;
71172;SDS011;58875;51.996;4.504;2023-02-21T05:03:00;36.91;;;34.61;;
71172;SDS011;58875;51.996;4.504;2023-02-21T05:05:25;38.11;;;35.27;;
71172;SDS011;58875;51.996;4.504;2023-02-21T05:07:51;36.96;;;34.74;;
71172;SDS011;58875;51.996;4.504;2023-02-21T05:10:17;39.28;;;36.38;;
71172;SDS011;58875;51.996;4.504;2023-02-21T05:12:45;38.17;;;35.61;;
71172;SDS011;58875;51.996;4.504;2023-02-21T05:15:11;40.31;;;37.01;;
71172;SDS011;58875;51.996;4.504;2023-02-21T05:17:37;39.12;;;36.43;;
71172;SDS011;58875;51.996;4.504;2023-02-21T05:23:08;40.24;;;37.22;;
71172;SDS011;58875;51.996;4.504;2023-02-21T05:25:41;39.15;;;36.22;;
71172;SDS011;58875;51.996;4.504;2023-02-21T05:28:10;38.94;;;36.36;;
71172;SDS011;58875;51.996;4.504;2023-02-21T05:30:36;39.22;;;36.46;;
71172;SDS011;58875;51.996;4.504;2023-02-21T05:33:02;38.33;;;35.93;;
71172;SDS011;58875;51.996;4.504;2023-02-21T05:35:27;39.03;;;35.91;;
71172;SDS011;58875;51.996;4.504;2023-02-21T05:37:53;39.44;;;36.51;;
71172;SDS011;58875;51.996;4.504;2023-02-21T05:40:18;39.88;;;36.75;;
71172;SDS011;58875;51.996;4.504;2023-02-21T05:42:45;39.64;;;36.80;;
71172;SDS011;58875;51.996;4.504;2023-02-21T05:45:10;39.35;;;36.54;;
71172;SDS011;58875;51.996;4.504;2023-02-21T05:47:36;39.72;;;37.04;;
71172;SDS011;58875;51.996;4.504;2023-02-21T05:50:02;39.72;;;36.87;;
71172;SDS011;58875;51.996;4.504;2023-02-21T05:52:29;38.67;;;36.11;;
71172;SDS011;58875;51.996;4.504;2023-02-21T05:54:54;42.50;;;38.74;;
71172;SDS011;58875;51.996;4.504;2023-02-21T05:57:20;41.46;;;38.27;;
71172;SDS011;58875;51.996;4.504;2023-02-21T05:59:45;40.66;;;37.44;;
71172;SDS011;58875;51.996;4.504;2023-02-21T06:02:17;41.69;;;37.82;;
71172;SDS011;58875;51.996;4.504;2023-02-21T06:04:42;40.05;;;37.05;;
71172;SDS011;58875;51.996;4.504;2023-02-21T06:07:08;40.68;;;37.21;;
71172;SDS011;58875;51.996;4.504;2023-02-21T06:09:33;40.81;;;37.12;;
71172;SDS011;58875;51.996;4.504;2023-02-21T06:11:59;38.60;;;35.90;;
71172;SDS011;58875;51.996;4.504;2023-02-21T06:14:24;40.99;;;37.60;;
71172;SDS011;58875;51.996;4.504;2023-02-21T06:16:51;42.23;;;38.25;;
71172;SDS011;58875;51.996;4.504;2023-02-21T06:19:17;43.66;;;39.31;;
71172;SDS011;58875;51.996;4.504;2023-02-21T06:21:43;42.95;;;38.40;;
71172;SDS011;58875;51.996;4.504;2023-02-21T06:24:09;43.44;;;39.03;;
71172;SDS011;58875;51.996;4.504;2023-02-21T06:26:37;40.43;;;37.12;;
71172;SDS011;58875;51.996;4.504;2023-02-21T06:29:05;40.88;;;37.19;;
71172;SDS011;58875;51.996;4.504;2023-02-21T06:31:34;42.97;;;38.45;;
71172;SDS011;58875;51.996;4.504;2023-02-21T06:34:00;40.47;;;37.01;;
71172;SDS011;58875;51.996;4.504;2023-02-21T06:36:26;41.63;;;37.74;;
71172;SDS011;58875;51.996;4.504;2023-02-21T06:38:53;41.73;;;38.00;;
71172;SDS011;58875;51.996;4.504;2023-02-21T06:41:22;42.31;;;38.34;;
71172;SDS011;58875;51.996;4.504;2023-02-21T06:43:53;42.53;;;38.39;;
71172;SDS011;58875;51.996;4.504;2023-02-21T06:46:21;41.90;;;38.13;;
71172;SDS011;58875;51.996;4.504;2023-02-21T06:48:49;41.29;;;37.39;;
71172;SDS011;58875;51.996;4.504;2023-02-21T06:51:15;42.04;;;37.80;;
71172;SDS011;58875;51.996;4.504;2023-02-21T06:53:42;43.67;;;38.72;;
71172;SDS011;58875;51.996;4.504;2023-02-21T06:56:12;40.69;;;36.85;;
71172;SDS011;58875;51.996;4.504;2023-02-21T06:58:39;39.07;;;35.99;;
71172;SDS011;58875;51.996;4.504;2023-02-21T07:01:05;40.46;;;36.92;;
71172;SDS011;58875;51.996;4.504;2023-02-21T07:03:30;41.66;;;37.71;;
71172;SDS011;58875;51.996;4.504;2023-02-21T07:05:56;42.70;;;38.10;;
71172;SDS011;58875;51.996;4.504;2023-02-21T07:08:21;41.42;;;37.24;;
71172;SDS011;58875;51.996;4.504;2023-02-21T07:10:47;39.90;;;36.27;;
71172;SDS011;58875;51.996;4.504;2023-02-21T07:13:12;40.61;;;36.83;;
71172;SDS011;58875;51.996;4.504;2023-02-21T07:15:38;37.82;;;35.05;;
71172;SDS011;58875;51.996;4.504;2023-02-21T07:18:04;36.86;;;34.72;;
71172;SDS011;58875;51.996;4.504;2023-02-21T07:20:29;37.99;;;35.42;;
71172;SDS011;58875;51.996;4.504;2023-02-21T07:22:57;37.49;;;34.95;;
71172;SDS011;58875;51.996;4.504;2023-02-21T07:25:23;38.16;;;35.38;;
71172;SDS011;58875;51.996;4.504;2023-02-21T07:27:49;38.96;;;35.81;;
71172;SDS011;58875;51.996;4.504;2023-02-21T07:30:16;36.41;;;33.88;;
71172;SDS011;58875;51.996;4.504;2023-02-21T07:32:42;35.59;;;33.71;;
71172;SDS011;58875;51.996;4.504;2023-02-21T07:35:08;35.66;;;33.58;;
71172;SDS011;58875;51.996;4.504;2023-02-21T07:37:33;37.38;;;34.43;;
71172;SDS011;58875;51.996;4.504;2023-02-21T07:39:59;36.61;;;34.06;;
71172;SDS011;58875;51.996;4.504;2023-02-21T07:42:24;35.64;;;33.58;;
71172;SDS011;58875;51.996;4.504;2023-02-21T07:44:54;35.54;;;33.26;;
71172;SDS011;58875;51.996;4.504;2023-02-21T07:47:23;37.48;;;34.07;;
71172;SDS011;58875;51.996;4.504;2023-02-21T07:49:50;35.97;;;33.32;;
71172;SDS011;58875;51.996;4.504;2023-02-21T07:52:18;38.07;;;34.87;;
71172;SDS011;58875;51.996;4.504;2023-02-21T07:54:45;36.67;;;33.83;;
71172;SDS011;58875;51.996;4.504;2023-02-21T07:57:11;35.14;;;32.74;;
71172;SDS011;58875;51.996;4.504;2023-02-21T07:59:36;35.57;;;32.73;;
71172;SDS011;58875;51.996;4.504;2023-02-21T08:02:02;36.02;;;33.36;;
71172;SDS011;58875;51.996;4.504;2023-02-21T08:04:28;35.72;;;33.15;;
71172;SDS011;58875;51.996;4.504;2023-02-21T08:07:01;35.05;;;32.49;;
71172;SDS011;58875;51.996;4.504;2023-02-21T08:09:28;34.51;;;32.09;;
71172;SDS011;58875;51.996;4.504;2023-02-21T08:11:54;34.30;;;31.76;;
71172;SDS011;58875;51.996;4.504;2023-02-21T08:14:19;36.71;;;33.54;;
71172;SDS011;58875;51.996;4.504;2023-02-21T08:16:45;36.26;;;33.26;;
71172;SDS011;58875;51.996;4.504;2023-02-21T08:19:10;35.02;;;32.63;;
71172;SDS011;58875;51.996;4.504;2023-02-21T08:21:36;34.24;;;32.15;;
71172;SDS011;58875;51.996;4.504;2023-02-21T08:24:02;35.00;;;32.38;;
71172;SDS011;58875;51.996;4.504;2023-02-21T08:26:28;34.18;;;31.96;;
71172;SDS011;58875;51.996;4.504;2023-02-21T08:28:54;33.69;;;31.60;;
71172;SDS011;58875;51.996;4.504;2023-02-21T08:31:20;35.06;;;32.60;;
71172;SDS011;58875;51.996;4.504;2023-02-21T08:33:45;36.09;;;32.99;;
71172;SDS011;58875;51.996;4.504;2023-02-21T08:36:11;35.40;;;32.87;;
71172;SDS011;58875;51.996;4.504;2023-02-21T08:38:37;35.79;;;32.93;;
71172;SDS011;58875;51.996;4.504;2023-02-21T08:41:03;34.61;;;32.15;;
71172;SDS011;58875;51.996;4.504;2023-02-21T08:43:30;38.05;;;34.36;;
71172;SDS011;58875;51.996;4.504;2023-02-21T08:45:56;37.17;;;33.56;;
71172;SDS011;58875;51.996;4.504;2023-02-21T08:48:22;35.35;;;32.91;;
71172;SDS011;58875;51.996;4.504;2023-02-21T08:50:48;36.24;;;33.12;;
71172;SDS011;58875;51.996;4.504;2023-02-21T08:53:16;37.47;;;33.83;;
71172;SDS011;58875;51.996;4.504;2023-02-21T08:55:42;35.47;;;32.40;;
71172;SDS011;58875;51.996;4.504;2023-02-21T08:58:08;37.37;;;33.63;;
71172;SDS011;58875;51.996;4.504;2023-02-21T09:00:37;35.93;;;32.94;;
71172;SDS011;58875;51.996;4.504;2023-02-21T09:03:03;35.63;;;33.11;;
71172;SDS011;58875;51.996;4.504;2023-02-21T09:05:29;37.14;;;33.54;;
71172;SDS011;58875;51.996;4.504;2023-02-21T09:07:56;36.48;;;33.40;;
71172;SDS011;58875;51.996;4.504;2023-02-21T09:10:29;36.69;;;33.69;;
71172;SDS011;58875;51.996;4.504;2023-02-21T09:13:01;36.25;;;33.43;;
71172;SDS011;58875;51.996;4.504;2023-02-21T09:15:28;36.50;;;33.21;;
71172;SDS011;58875;51.996;4.504;2023-02-21T09:17:55;36.37;;;33.00;;
71172;SDS011;58875;51.996;4.504;2023-02-21T09:20:22;38.03;;;34.23;;
71172;SDS011;58875;51.996;4.504;2023-02-21T09:22:50;37.23;;;33.79;;
71172;SDS011;58875;51.996;4.504;2023-02-21T09:25:17;38.05;;;34.29;;
71172;SDS011;58875;51.996;4.504;2023-02-21T09:27:47;37.97;;;34.55;;
71172;SDS011;58875;51.996;4.504;2023-02-21T09:30:20;37.55;;;34.34;;
71172;SDS011;58875;51.996;4.504;2023-02-21T09:32:49;40.61;;;35.85;;
71172;SDS011;58875;51.996;4.504;2023-02-21T09:35:15;42.08;;;36.51;;
71172;SDS011;58875;51.996;4.504;2023-02-21T09:37:42;40.09;;;35.59;;
71172;SDS011;58875;51.996;4.504;2023-02-21T09:42:58;38.48;;;34.93;;
71172;SDS011;58875;51.996;4.504;2023-02-21T09:45:28;42.39;;;37.36;;
71172;SDS011;58875;51.996;4.504;2023-02-21T09:47:58;40.85;;;36.22;;
71172;SDS011;58875;51.996;4.504;2023-02-21T09:50:30;41.30;;;36.32;;
71172;SDS011;58875;51.996;4.504;2023-02-21T09:53:03;41.83;;;36.77;;
71172;SDS011;58875;51.996;4.504;2023-02-21T09:55:35;40.44;;;35.64;;
71172;SDS011;58875;51.996;4.504;2023-02-21T09:58:05;43.10;;;37.43;;
71172;SDS011;58875;51.996;4.504;2023-02-21T10:00:39;45.56;;;38.64;;
71172;SDS011;58875;51.996;4.504;2023-02-21T10:03:09;45.81;;;38.99;;
71172;SDS011;58875;51.996;4.504;2023-02-21T10:06:14;45.49;;;38.77;;
71172;SDS011;58875;51.996;4.504;2023-02-21T10:08:56;46.30;;;39.31;;
71172;SDS011;58875;51.996;4.504;2023-02-21T10:14:18;43.53;;;37.34;;
71172;SDS011;58875;51.996;4.504;2023-02-21T10:19:44;42.98;;;36.70;;
71172;SDS011;58875;51.996;4.504;2023-02-21T10:24:48;40.98;;;35.03;;
71172;SDS011;58875;51.996;4.504;2023-02-21T10:27:19;41.44;;;35.20;;
71172;SDS011;58875;51.996;4.504;2023-02-21T10:32:20;39.74;;;34.21;;
71172;SDS011;58875;51.996;4.504;2023-02-21T10:34:48;39.51;;;34.05;;
71172;SDS011;58875;51.996;4.504;2023-02-21T10:37:31;38.08;;;33.20;;
71172;SDS011;58875;51.996;4.504;2023-02-21T10:42:51;38.30;;;33.31;;
71172;SDS011;58875;51.996;4.504;2023-02-21T10:45:35;37.87;;;32.63;;
71172;SDS011;58875;51.996;4.504;2023-02-21T10:48:10;37.32;;;32.16;;
71172;SDS011;58875;51.996;4.504;2023-02-21T10:50:43;36.66;;;31.80;;
71172;SDS011;58875;51.996;4.504;2023-02-21T10:53:30;36.05;;;31.27;;
71172;SDS011;58875;51.996;4.504;2023-02-21T11:03:43;34.07;;;29.42;;
71172;SDS011;58875;51.996;4.504;2023-02-21T11:06:20;32.45;;;28.42;;
71172;SDS011;58875;51.996;4.504;2023-02-21T11:08:49;33.14;;;28.52;;
71172;SDS011;58875;51.996;4.504;2023-02-21T11:11:14;31.98;;;27.39;;
71172;SDS011;58875;51.996;4.504;2023-02-21T11:13:40;29.27;;;25.64;;
71172;SDS011;58875;51.996;4.504;2023-02-21T11:16:16;28.94;;;25.24;;
71172;SDS011;58875;51.996;4.504;2023-02-21T11:18:44;27.50;;;24.05;;
71172;SDS011;58875;51.996;4.504;2023-02-21T11:21:11;24.63;;;22.38;;
71172;SDS011;58875;51.996;4.504;2023-02-21T11:23:55;23.63;;;21.68;;
71172;SDS011;58875;51.996;4.504;2023-02-21T11:26:38;22.11;;;19.89;;
71172;SDS011;58875;51.996;4.504;2023-02-21T11:29:14;20.47;;;18.53;;
71172;SDS011;58875;51.996;4.504;2023-02-21T11:31:43;20.16;;;18.65;;
71172;SDS011;58875;51.996;4.504;2023-02-21T11:34:11;21.67;;;19.73;;
71172;SDS011;58875;51.996;4.504;2023-02-21T11:36:39;24.50;;;21.79;;
71172;SDS011;58875;51.996;4.504;2023-02-21T11:39:24;24.57;;;22.41;;
71172;SDS011;58875;51.996;4.504;2023-02-21T11:41:57;23.90;;;22.01;;
71172;SDS011;58875;51.996;4.504;2023-02-21T11:44:34;24.17;;;22.15;;
71172;SDS011;58875;51.996;4.504;2023-02-21T11:53:03;20.23;;;18.86;;
71172;SDS011;58875;51.996;4.504;2023-02-21T11:55:31;18.91;;;17.55;;
71172;SDS011;58875;51.996;4.504;2023-02-21T12:00:49;20.98;;;19.47;;
71172;SDS011;58875;51.996;4.504;2023-02-21T12:09:03;19.39;;;17.83;;
71172;SDS011;58875;51.996;4.504;2023-02-21T12:14:26;19.39;;;17.89;;
71172;SDS011;58875;51.996;4.504;2023-02-21T12:20:42;21.64;;;20.13;;
71172;SDS011;58875;51.996;4.504;2023-02-21T12:27:00;21.64;;;20.14;;
71172;SDS011;58875;51.996;4.504;2023-02-21T12:32:48;21.59;;;20.08;;
71172;SDS011;58875;51.996;4.504;2023-02-21T12:48:55;22.74;;;21.19;;
71172;SDS011;58875;51.996;4.504;2023-02-21T12:51:25;23.16;;;21.60;;
71172;SDS011;58875;51.996;4.504;2023-02-21T12:53:59;25.19;;;23.64;;
71172;SDS011;58875;51.996;4.504;2023-02-21T12:56:40;27.45;;;25.69;;
71172;SDS011;58875;51.996;4.504;2023-02-21T12:59:24;27.15;;;25.92;;
71172;SDS011;58875;51.996;4.504;2023-02-21T13:01:59;29.67;;;28.04;;
71172;SDS011;58875;51.996;4.504;2023-02-21T13:07:24;26.37;;;25.47;;
71172;SDS011;58875;51.996;4.504;2023-02-21T13:13:00;18.10;;;17.33;;
71172;SDS011;58875;51.996;4.504;2023-02-21T13:15:29;18.44;;;17.48;;
71172;SDS011;58875;51.996;4.504;2023-02-21T13:18:06;17.98;;;17.41;;
71172;SDS011;58875;51.996;4.504;2023-02-21T13:20:41;19.63;;;18.72;;
71172;SDS011;58875;51.996;4.504;2023-02-21T13:23:12;21.28;;;20.22;;
71172;SDS011;58875;51.996;4.504;2023-02-21T13:29:01;24.52;;;23.61;;
71172;SDS011;58875;51.996;4.504;2023-02-21T13:31:34;19.43;;;18.91;;
71172;SDS011;58875;51.996;4.504;2023-02-21T13:34:07;18.52;;;17.95;;
71172;SDS011;58875;51.996;4.504;2023-02-21T13:49:38;24.42;;;23.47;;
71172;SDS011;58875;51.996;4.504;2023-02-21T14:13:45;17.86;;;16.67;;
71172;SDS011;58875;51.996;4.504;2023-02-21T14:18:39;18.17;;;17.32;;
71172;SDS011;58875;51.996;4.504;2023-02-21T14:23:58;23.17;;;21.90;;
71172;SDS011;58875;51.996;4.504;2023-02-21T14:39:59;31.91;;;29.86;;
71172;SDS011;58875;51.996;4.504;2023-02-21T14:58:42;40.66;;;35.54;;
71172;SDS011;58875;51.996;4.504;2023-02-21T15:03:53;50.53;;;42.94;;
71172;SDS011;58875;51.996;4.504;2023-02-21T15:06:28;55.22;;;46.38;;
71172;SDS011;58875;51.996;4.504;2023-02-21T15:08:57;54.81;;;46.28;;
71172;SDS011;58875;51.996;4.504;2023-02-21T15:11:42;55.56;;;46.17;;
71172;SDS011;58875;51.996;4.504;2023-02-21T15:14:13;49.58;;;42.26;;
71172;SDS011;58875;51.996;4.504;2023-02-21T15:16:48;46.74;;;40.33;;
71172;SDS011;58875;51.996;4.504;2023-02-21T15:19:30;45.59;;;39.03;;
71172;SDS011;58875;51.996;4.504;2023-02-21T15:27:39;46.45;;;39.93;;
71172;SDS011;58875;51.996;4.504;2023-02-21T15:38:42;49.99;;;43.22;;
71172;SDS011;58875;51.996;4.504;2023-02-21T15:46:45;47.87;;;41.28;;
71172;SDS011;58875;51.996;4.504;2023-02-21T15:49:26;47.76;;;40.68;;
71172;SDS011;58875;51.996;4.504;2023-02-21T15:51:57;46.15;;;39.47;;
71172;SDS011;58875;51.996;4.504;2023-02-21T15:54:26;44.23;;;38.21;;
71172;SDS011;58875;51.996;4.504;2023-02-21T15:57:03;42.11;;;36.82;;
71172;SDS011;58875;51.996;4.504;2023-02-21T15:59:29;46.42;;;39.90;;
71172;SDS011;58875;51.996;4.504;2023-02-21T16:02:10;46.36;;;39.94;;
71172;SDS011;58875;51.996;4.504;2023-02-21T16:04:46;45.06;;;39.13;;
71172;SDS011;58875;51.996;4.504;2023-02-21T16:09:46;44.38;;;38.75;;
71172;SDS011;58875;51.996;4.504;2023-02-21T16:14:57;45.95;;;39.56;;
71172;SDS011;58875;51.996;4.504;2023-02-21T16:17:28;48.73;;;41.64;;
71172;SDS011;58875;51.996;4.504;2023-02-21T16:22:39;48.26;;;41.39;;
71172;SDS011;58875;51.996;4.504;2023-02-21T16:27:39;48.60;;;42.07;;
71172;SDS011;58875;51.996;4.504;2023-02-21T16:30:10;46.44;;;40.70;;
71172;SDS011;58875;51.996;4.504;2023-02-21T16:33:04;51.33;;;44.18;;
71172;SDS011;58875;51.996;4.504;2023-02-21T16:35:31;53.31;;;45.50;;
71172;SDS011;58875;51.996;4.504;2023-02-21T16:37:58;51.20;;;43.71;;
71172;SDS011;58875;51.996;4.504;2023-02-21T16:40:29;50.59;;;43.78;;
71172;SDS011;58875;51.996;4.504;2023-02-21T16:42:57;49.26;;;42.62;;
71172;SDS011;58875;51.996;4.504;2023-02-21T16:45:26;48.89;;;42.04;;
71172;SDS011;58875;51.996;4.504;2023-02-21T16:47:56;50.28;;;42.88;;
71172;SDS011;58875;51.996;4.504;2023-02-21T16:50:30;52.41;;;44.44;;
71172;SDS011;58875;51.996;4.504;2023-02-21T16:53:04;51.80;;;44.36;;
71172;SDS011;58875;51.996;4.504;2023-02-21T16:55:30;53.76;;;45.34;;
71172;SDS011;58875;51.996;4.504;2023-02-21T16:57:59;53.54;;;45.89;;
71172;SDS011;58875;51.996;4.504;2023-02-21T17:00:28;53.71;;;46.50;;
71172;SDS011;58875;51.996;4.504;2023-02-21T17:02:56;53.85;;;46.31;;
71172;SDS011;58875;51.996;4.504;2023-02-21T17:05:21;53.62;;;45.88;;
71172;SDS011;58875;51.996;4.504;2023-02-21T17:07:50;56.78;;;47.50;;
71172;SDS011;58875;51.996;4.504;2023-02-21T17:10:18;49.46;;;43.01;;
71172;SDS011;58875;51.996;4.504;2023-02-21T17:12:44;48.68;;;41.84;;
71172;SDS011;58875;51.996;4.504;2023-02-21T17:15:12;42.90;;;36.96;;
71172;SDS011;58875;51.996;4.504;2023-02-21T17:17:38;40.57;;;34.13;;
71172;SDS011;58875;51.996;4.504;2023-02-21T17:20:05;35.98;;;30.63;;
71172;SDS011;58875;51.996;4.504;2023-02-21T17:22:42;33.37;;;29.15;;
71172;SDS011;58875;51.996;4.504;2023-02-21T17:25:08;36.72;;;30.73;;
71172;SDS011;58875;51.996;4.504;2023-02-21T17:27:34;32.80;;;28.00;;
71172;SDS011;58875;51.996;4.504;2023-02-21T17:30:01;30.82;;;27.34;;
71172;SDS011;58875;51.996;4.504;2023-02-21T17:32:28;35.70;;;30.21;;
71172;SDS011;58875;51.996;4.504;2023-02-21T17:34:54;34.16;;;29.22;;
71172;SDS011;58875;51.996;4.504;2023-02-21T17:37:20;33.83;;;29.29;;
71172;SDS011;58875;51.996;4.504;2023-02-21T17:39:46;36.94;;;31.26;;
71172;SDS011;58875;51.996;4.504;2023-02-21T17:42:16;38.38;;;32.55;;
71172;SDS011;58875;51.996;4.504;2023-02-21T17:44:42;37.07;;;32.27;;
71172;SDS011;58875;51.996;4.504;2023-02-21T17:47:11;39.32;;;33.47;;
71172;SDS011;58875;51.996;4.504;2023-02-21T17:49:41;41.18;;;34.79;;
71172;SDS011;58875;51.996;4.504;2023-02-21T17:52:07;41.04;;;35.23;;
71172;SDS011;58875;51.996;4.504;2023-02-21T17:54:35;44.63;;;38.01;;
71172;SDS011;58875;51.996;4.504;2023-02-21T17:57:01;44.03;;;37.37;;
71172;SDS011;58875;51.996;4.504;2023-02-21T17:59:28;49.30;;;40.93;;
71172;SDS011;58875;51.996;4.504;2023-02-21T18:01:54;50.75;;;41.89;;
71172;SDS011;58875;51.996;4.504;2023-02-21T18:04:20;48.20;;;40.28;;
71172;SDS011;58875;51.996;4.504;2023-02-21T18:06:46;40.72;;;34.36;;
71172;SDS011;58875;51.996;4.504;2023-02-21T18:09:12;38.55;;;32.64;;
71172;SDS011;58875;51.996;4.504;2023-02-21T18:11:37;42.16;;;35.52;;
71172;SDS011;58875;51.996;4.504;2023-02-21T18:14:03;40.96;;;35.09;;
71172;SDS011;58875;51.996;4.504;2023-02-21T18:16:29;39.07;;;33.57;;
71172;SDS011;58875;51.996;4.504;2023-02-21T18:18:55;38.61;;;33.26;;
71172;SDS011;58875;51.996;4.504;2023-02-21T18:21:21;34.19;;;30.34;;
71172;SDS011;58875;51.996;4.504;2023-02-21T18:23:47;34.30;;;29.79;;